Time;durP1;ratioP1;P1;durP2;ratioP2;P2;SDS_P1;SDS_P2;PMS_P1;PMS_P2;Temp;Humidity;BMP_temperature;BMP_pressure;BME280_temperature;BME280_humidity;BME280_pressure;Samples;Min_cycle;Max_cycle;Signal;HPM_P1;HPM_P2
2020/12/29 00:02:19;;;;;;;4.40;3.47;;;;;;;2.13;53.63;98096.47;5026446;28;20129;-73
2020/12/29 00:04:46;;;;;;;9.35;3.22;;;;;;;2.17;53.49;98095.41;5009464;28;20025;-75
2020/12/29 00:07:11;;;;;;;8.07;3.30;;;;;;;2.14;53.51;98098.13;5010413;28;20464;-73
2020/12/29 00:09:37;;;;;;;6.50;3.65;;;;;;;2.18;53.57;98097.09;5024590;28;20029;-73
2020/12/29 00:12:02;;;;;;;4.55;2.92;;;;;;;2.14;53.75;98096.38;5025708;28;20520;-72
2020/12/29 00:14:28;;;;;;;5.07;2.90;;;;;;;2.14;53.67;98100.72;5025421;28;20061;-74
2020/12/29 00:16:53;;;;;;;6.15;3.38;;;;;;;2.21;53.56;98102.06;5026996;28;20079;-75
2020/12/29 00:19:23;;;;;;;5.53;3.75;;;;;;;2.22;53.69;98103.75;5044368;28;20249;-73
2020/12/29 00:21:51;;;;;;;4.97;3.53;;;;;;;2.19;53.80;98100.50;5026594;28;20040;-74
2020/12/29 00:24:17;;;;;;;6.70;3.53;;;;;;;2.26;53.42;98094.94;5032640;28;20455;-74
2020/12/29 00:26:42;;;;;;;7.07;3.80;;;;;;;2.28;53.65;98102.59;5025016;28;20068;-74
2020/12/29 00:29:08;;;;;;;6.22;3.22;;;;;;;2.33;53.76;98096.31;5039413;28;20060;-73
2020/12/29 00:31:34;;;;;;;4.53;2.78;;;;;;;2.41;53.37;98102.81;5027018;28;20482;-71
2020/12/29 00:34:00;;;;;;;4.20;2.63;;;;;;;2.39;53.48;98099.50;5024590;28;20029;-71
2020/12/29 00:36:26;;;;;;;5.45;3.53;;;;;;;2.33;53.72;98096.31;5025884;28;20030;-72
2020/12/29 00:38:52;;;;;;;4.50;3.13;;;;;;;2.43;53.28;98085.53;5038012;28;20098;-70
2020/12/29 00:41:18;;;;;;;9.88;4.43;;;;;;;2.52;53.05;98085.06;5039809;28;20028;-73
2020/12/29 00:43:44;;;;;;;4.05;3.08;;;;;;;2.48;52.86;98083.56;5024345;28;20041;-72
2020/12/29 00:46:15;;;;;;;5.63;3.30;;;;;;;2.46;53.35;98082.78;5024391;28;20033;-71
2020/12/29 00:48:41;;;;;;;5.53;2.58;;;;;;;2.50;53.32;98090.28;5026056;28;20481;-72
2020/12/29 00:51:15;;;;;;;9.27;3.20;;;;;;;2.55;52.94;98087.47;5023994;28;20033;-72
2020/12/29 00:53:52;;;;;;;7.80;4.28;;;;;;;2.47;53.24;98089.63;5021621;28;20083;-72
2020/12/29 00:56:19;;;;;;;5.07;3.17;;;;;;;2.55;53.19;98085.75;5029109;28;20030;-77
2020/12/29 00:58:46;;;;;;;6.05;3.75;;;;;;;2.65;52.82;98080.94;5027367;28;20497;-73
2020/12/29 01:01:13;;;;;;;9.50;4.15;;;;;;;2.54;53.01;98078.09;5024906;28;20029;-70
2020/12/29 01:04:01;;;;;;;6.57;3.47;;;;;;;2.60;52.83;98082.94;5025251;28;20123;-71
2020/12/29 01:06:29;;;;;;;8.20;3.40;;;;;;;2.63;52.92;98077.59;5022362;28;20075;-72
2020/12/29 01:08:57;;;;;;;7.30;4.47;;;;;;;2.63;52.74;98087.94;5025962;28;20615;-72
2020/12/29 01:11:22;;;;;;;6.13;4.15;;;;;;;2.61;52.80;98089.75;5022643;28;20038;-71
2020/12/29 01:13:52;;;;;;;16.77;4.45;;;;;;;2.59;52.77;98091.56;5023575;28;20034;-71
2020/12/29 01:16:18;;;;;;;6.40;3.90;;;;;;;2.60;53.05;98085.50;5043293;28;20449;-72
2020/12/29 01:18:48;;;;;;;7.68;4.88;;;;;;;2.62;52.73;98085.41;5007093;28;20081;-71
2020/12/29 01:21:13;;;;;;;7.65;3.70;;;;;;;2.52;53.35;98090.22;5023722;28;20508;-73
2020/12/29 01:23:39;;;;;;;7.80;4.20;;;;;;;2.67;52.75;98091.19;5020449;28;20025;-70
2020/12/29 01:26:07;;;;;;;10.32;4.80;;;;;;;2.68;52.93;98085.94;5038936;28;20107;-69
2020/12/29 01:28:33;;;;;;;6.88;4.38;;;;;;;2.74;52.81;98084.78;5008340;28;20033;-68
2020/12/29 01:30:58;;;;;;;8.98;4.32;;;;;;;2.76;52.71;98082.97;5022407;28;20049;-70
2020/12/29 01:33:24;;;;;;;8.38;4.80;;;;;;;2.70;52.76;98091.84;5020681;28;20026;-69
2020/12/29 01:35:49;;;;;;;10.13;3.88;;;;;;;2.77;52.75;98088.03;5019076;28;20063;-69
2020/12/29 01:38:15;;;;;;;8.43;4.57;;;;;;;2.60;53.06;98088.09;5023239;28;20087;-69
2020/12/29 01:40:41;;;;;;;9.88;4.97;;;;;;;2.59;53.32;98099.31;5023387;28;20112;-70
2020/12/29 01:43:06;;;;;;;8.15;4.88;;;;;;;2.66;52.88;98087.75;5023978;28;20057;-70
2020/12/29 01:45:32;;;;;;;9.55;4.78;;;;;;;2.66;53.30;98092.09;5023607;28;20597;-70
2020/12/29 01:47:57;;;;;;;10.32;4.57;;;;;;;2.68;53.06;98085.09;5039731;28;20033;-69
2020/12/29 01:50:24;;;;;;;11.85;5.32;;;;;;;2.70;53.22;98091.84;5022596;28;20037;-69
2020/12/29 01:52:58;;;;;;;10.55;5.55;;;;;;;2.66;53.31;98080.00;5023376;28;20025;-67
2020/12/29 01:55:26;;;;;;;9.48;5.30;;;;;;;2.70;53.14;98086.69;5038975;28;20438;-66
2020/12/29 01:57:52;;;;;;;10.65;5.10;;;;;;;2.64;52.97;98079.25;5026126;28;20068;-73
2020/12/29 02:00:18;;;;;;;11.48;5.93;;;;;;;2.58;53.62;98077.03;5025190;28;20394;-72
2020/12/29 02:02:45;;;;;;;10.80;5.35;;;;;;;2.63;53.43;98077.59;5006650;28;20033;-72
2020/12/29 02:05:11;;;;;;;14.77;5.85;;;;;;;2.60;53.65;98072.63;5022252;28;20029;-73
2020/12/29 02:07:38;;;;;;;8.23;4.82;;;;;;;2.61;53.59;98076.84;5020791;28;20528;-71
2020/12/29 02:10:06;;;;;;;14.90;6.78;;;;;;;2.60;53.69;98077.78;5024932;28;20029;-72
2020/12/29 02:12:34;;;;;;;9.95;5.35;;;;;;;2.54;53.66;98078.91;5024717;28;20041;-72
2020/12/29 02:15:00;;;;;;;11.02;5.68;;;;;;;2.39;54.21;98084.03;5024022;28;20093;-71
2020/12/29 02:17:28;;;;;;;16.95;5.80;;;;;;;2.52;53.96;98085.06;5020858;28;20038;-72
2020/12/29 02:19:54;;;;;;;11.98;7.15;;;;;;;2.52;53.89;98085.06;5022318;28;20051;-72
2020/12/29 02:22:24;;;;;;;9.98;5.40;;;;;;;2.45;54.17;98081.16;5022641;28;20068;-72
2020/12/29 02:24:55;;;;;;;11.18;6.40;;;;;;;2.37;54.50;98073.78;5035813;28;20413;-72
2020/12/29 02:27:23;;;;;;;13.30;6.82;;;;;;;2.40;54.22;98078.81;5022428;28;20581;-72
2020/12/29 02:29:49;;;;;;;9.45;5.32;;;;;;;2.51;54.20;98086.81;5018249;28;20045;-72
2020/12/29 02:32:15;;;;;;;11.88;6.65;;;;;;;2.49;54.23;98085.22;5023053;28;20044;-71
2020/12/29 02:34:43;;;;;;;14.57;6.10;;;;;;;2.42;54.37;98084.72;5023445;28;20053;-72
2020/12/29 02:37:11;;;;;;;10.30;5.95;;;;;;;2.50;54.19;98086.88;5018421;28;20517;-73
2020/12/29 02:39:40;;;;;;;12.95;6.43;;;;;;;2.51;54.09;98079.09;5021752;28;20061;-71
2020/12/29 02:42:06;;;;;;;11.35;6.30;;;;;;;2.51;54.41;98075.66;5020746;28;20024;-72
2020/12/29 02:44:32;;;;;;;15.98;6.35;;;;;;;2.53;54.45;98076.41;5023574;28;20034;-71
2020/12/29 02:47:00;;;;;;;11.10;6.47;;;;;;;2.52;54.36;98079.91;5034781;28;20713;-72
2020/12/29 02:49:25;;;;;;;11.45;5.45;;;;;;;2.50;54.41;98077.41;5039216;28;20116;-71
2020/12/29 02:51:51;;;;;;;11.70;6.70;;;;;;;2.52;54.29;98090.22;5023752;28;20094;-71
2020/12/29 02:54:16;;;;;;;15.73;7.45;;;;;;;2.50;54.29;98092.03;5039552;28;20030;-70
2020/12/29 02:56:43;;;;;;;15.27;6.55;;;;;;;2.49;54.43;98087.81;5026201;28;20033;-71
2020/12/29 02:59:09;;;;;;;11.60;6.20;;;;;;;2.49;54.75;98091.22;5037410;28;20083;-72
2020/12/29 03:01:35;;;;;;;11.23;6.47;;;;;;;2.52;54.70;98090.22;5022190;28;20080;-71
2020/12/29 03:04:00;;;;;;;11.52;7.38;;;;;;;2.59;54.55;98090.75;5018800;28;20044;-70
2020/12/29 03:06:26;;;;;;;13.18;7.38;;;;;;;2.63;54.55;98092.25;5022317;28;20034;-70
2020/12/29 03:08:52;;;;;;;12.52;6.00;;;;;;;2.60;54.30;98093.25;5035104;28;20049;-71
2020/12/29 03:11:31;;;;;;;12.07;7.57;;;;;;;2.65;54.33;98099.00;5021855;28;20036;-72
2020/12/29 03:13:58;;;;;;;11.48;6.85;;;;;;;2.68;54.32;98093.66;5017320;23;20836;-72
2020/12/29 03:16:25;;;;;;;11.93;6.50;;;;;;;2.70;54.23;98097.00;5025955;28;20033;-73
2020/12/29 03:18:51;;;;;;;10.60;6.60;;;;;;;2.70;54.42;98103.91;5024659;28;20029;-73
2020/12/29 03:21:17;;;;;;;13.23;6.30;;;;;;;2.65;54.46;98105.91;5019595;28;20055;-70
2020/12/29 03:23:42;;;;;;;10.25;6.75;;;;;;;2.69;54.38;98105.66;5024140;28;20103;-71
2020/12/29 03:26:08;;;;;;;14.13;7.55;;;;;;;2.73;54.29;98099.44;5003666;28;20057;-71
2020/12/29 03:28:34;;;;;;;16.00;6.68;;;;;;;2.73;54.30;98099.44;5025097;28;20021;-71
2020/12/29 03:31:02;;;;;;;12.82;6.70;;;;;;;2.73;54.17;98106.31;5024114;28;20052;-73
2020/12/29 03:33:28;;;;;;;15.77;7.50;;;;;;;2.64;54.28;98101.66;5024918;28;20037;-73
2020/12/29 03:35:54;;;;;;;11.73;7.07;;;;;;;2.60;54.38;98113.88;5023841;28;20109;-73
2020/12/29 03:38:21;;;;;;;14.38;6.85;;;;;;;2.68;54.48;98114.31;5026633;28;20398;-72
2020/12/29 03:40:47;;;;;;;13.32;7.72;;;;;;;2.67;54.21;98114.41;5023697;28;20033;-72
2020/12/29 03:43:13;;;;;;;12.93;7.43;;;;;;;2.66;54.35;98115.28;5025149;28;20037;-71
2020/12/29 03:45:40;;;;;;;14.90;7.05;;;;;;;2.61;54.38;98112.94;5024760;28;20029;-72
2020/12/29 03:48:07;;;;;;;14.00;6.85;;;;;;;2.72;54.19;98112.41;5026783;28;20547;-71
2020/12/29 03:50:32;;;;;;;16.45;7.65;;;;;;;2.72;54.28;98118.38;5024547;28;20091;-71
2020/12/29 03:52:58;;;;;;;15.23;7.00;;;;;;;2.81;53.99;98111.09;5022732;28;20053;-73
2020/12/29 03:55:23;;;;;;;11.48;6.68;;;;;;;2.63;54.38;98121.44;5024472;28;20037;-73
2020/12/29 03:57:49;;;;;;;11.75;7.03;;;;;;;2.61;54.50;98115.53;5025177;28;20033;-72
2020/12/29 04:00:14;;;;;;;13.43;7.38;;;;;;;2.75;53.91;98123.38;5025148;28;20033;-71
2020/12/29 04:02:40;;;;;;;15.15;7.00;;;;;;;2.78;53.94;98114.69;5024932;28;20044;-72
2020/12/29 04:05:05;;;;;;;14.68;8.05;;;;;;;2.54;54.13;98119.34;5025303;28;20033;-73
2020/12/29 04:07:31;;;;;;;12.40;7.28;;;;;;;2.61;54.20;98125.84;5023865;28;20022;-72
2020/12/29 04:09:56;;;;;;;13.32;5.97;;;;;;;2.39;54.51;98127.84;5025989;28;20033;-73
2020/12/29 04:12:21;;;;;;;14.15;7.25;;;;;;;2.32;54.48;98125.56;5024928;28;20080;-73
2020/12/29 04:14:47;;;;;;;13.75;7.30;;;;;;;2.28;54.58;98125.81;5025794;28;20087;-72
2020/12/29 04:17:12;;;;;;;15.05;6.75;;;;;;;2.32;54.61;98130.72;5008224;28;20033;-72
2020/12/29 04:19:38;;;;;;;13.45;6.57;;;;;;;2.21;54.54;98133.00;5021187;28;20025;-72
2020/12/29 04:22:03;;;;;;;11.93;6.63;;;;;;;2.23;54.42;98131.19;5022320;28;20061;-73
2020/12/29 04:24:29;;;;;;;10.63;5.20;;;;;;;2.17;54.23;98131.47;5029660;28;20675;-71
2020/12/29 04:26:54;;;;;;;9.48;4.57;;;;;;;2.03;54.49;98131.34;5028664;28;20029;-73
2020/12/29 04:29:20;;;;;;;8.50;5.05;;;;;;;2.06;54.24;98133.75;5029907;28;20029;-71
2020/12/29 04:31:47;;;;;;;9.82;4.90;;;;;;;2.06;54.14;98139.72;5028799;28;20025;-71
2020/12/29 04:34:12;;;;;;;8.95;5.60;;;;;;;1.95;54.27;98144.56;5027761;28;20029;-74
2020/12/29 04:36:38;;;;;;;8.15;5.15;;;;;;;1.83;54.08;98148.56;5011808;28;20048;-72
2020/12/29 04:39:05;;;;;;;8.23;4.53;;;;;;;1.79;53.83;98147.03;5029531;28;20029;-76
2020/12/29 04:41:31;;;;;;;9.63;5.25;;;;;;;1.52;54.09;98144.03;5029582;28;20533;-77
2020/12/29 04:43:57;;;;;;;8.15;4.55;;;;;;;1.56;53.76;98144.72;5041930;28;20033;-72
2020/12/29 04:46:23;;;;;;;8.38;4.57;;;;;;;1.45;53.90;98142.66;5028671;28;20107;-74
2020/12/29 04:48:48;;;;;;;10.05;4.65;;;;;;;1.46;53.97;98145.16;5027766;28;20440;-73
2020/12/29 04:51:15;;;;;;;8.43;5.07;;;;;;;1.58;53.46;98145.50;5027557;28;20029;-74
2020/12/29 04:53:56;;;;;;;9.45;4.57;;;;;;;1.62;53.42;98153.00;5027525;28;20409;-76
2020/12/29 04:56:26;;;;;;;7.28;3.85;;;;;;;1.57;52.95;98157.50;5031061;28;20064;-75
2020/12/29 04:58:52;;;;;;;8.95;5.28;;;;;;;1.52;53.28;98156.91;5013490;28;20045;-75
2020/12/29 05:01:22;;;;;;;9.20;5.47;;;;;;;1.56;53.08;98155.84;5031622;28;20216;-73
2020/12/29 05:03:48;;;;;;;10.10;4.63;;;;;;;1.58;52.82;98159.19;5011822;28;20117;-77
2020/12/29 05:06:14;;;;;;;8.05;4.10;;;;;;;1.45;52.89;98168.38;5031202;28;20033;-74
2020/12/29 05:08:46;;;;;;;7.60;4.30;;;;;;;1.16;52.95;98161.94;5029916;28;20039;-75
2020/12/29 05:11:16;;;;;;;8.82;4.40;;;;;;;1.14;53.13;98164.59;5030007;28;20029;-77
2020/12/29 05:13:43;;;;;;;6.70;4.43;;;;;;;0.91;53.53;98163.03;5029289;28;20025;-77
2020/12/29 05:16:09;;;;;;;7.15;3.40;;;;;;;0.87;53.31;98161.50;5049342;28;20509;-76
2020/12/29 05:18:34;;;;;;;7.38;4.60;;;;;;;0.75;53.58;98162.84;5047041;28;20049;-75
2020/12/29 05:21:00;;;;;;;9.23;4.72;;;;;;;0.63;53.79;98176.22;5044649;28;20086;-76
2020/12/29 05:23:26;;;;;;;8.98;3.78;;;;;;;0.60;53.62;98174.63;5032978;28;20026;-77
2020/12/29 05:25:54;;;;;;;8.60;4.53;;;;;;;0.54;54.06;98169.72;5028995;28;21580;-74
2020/12/29 05:28:20;;;;;;;8.35;5.07;;;;;;;0.53;54.28;98173.22;5013264;28;20048;-75
2020/12/29 05:30:53;;;;;;;8.63;4.68;;;;;;;0.53;54.10;98177.53;5027262;28;20037;-73
2020/12/29 05:33:19;;;;;;;11.23;5.03;;;;;;;0.56;53.88;98173.06;5022579;28;20072;-75
2020/12/29 05:35:45;;;;;;;7.35;4.60;;;;;;;0.61;53.94;98170.31;5027531;28;20032;-73
2020/12/29 05:38:11;;;;;;;8.88;5.38;;;;;;;0.59;54.04;98172.97;5029716;28;20037;-72
2020/12/29 05:40:37;;;;;;;8.55;4.15;;;;;;;0.62;53.89;98167.69;5025101;28;20513;-72
2020/12/29 05:43:03;;;;;;;10.57;5.30;;;;;;;0.62;53.87;98170.25;5028361;28;20033;-74
2020/12/29 05:45:31;;;;;;;9.25;4.85;;;;;;;0.58;53.91;98179.00;5027220;28;20041;-71
2020/12/29 05:47:59;;;;;;;9.10;4.82;;;;;;;0.67;53.77;98175.19;5044888;28;20029;-74
2020/12/29 05:50:26;;;;;;;11.80;5.10;;;;;;;0.66;53.66;98179.50;5041927;28;20020;-74
2020/12/29 05:52:55;;;;;;;7.47;4.18;;;;;;;0.73;53.69;98179.25;5050165;28;20048;-77
2020/12/29 05:55:21;;;;;;;8.07;4.50;;;;;;;0.72;53.56;98187.84;5049227;28;20048;-76
2020/12/29 05:58:08;;;;;;;10.55;4.72;;;;;;;0.73;53.45;98189.53;5047640;28;20032;-76
2020/12/29 06:00:35;;;;;;;10.27;4.57;;;;;;;0.89;52.94;98188.81;5043533;28;20030;-74
2020/12/29 06:03:02;;;;;;;7.68;4.15;;;;;;;0.89;52.97;98190.56;5029539;28;20057;-71
2020/12/29 06:05:29;;;;;;;8.70;5.00;;;;;;;0.74;53.37;98192.03;5025848;28;20056;-72
2020/12/29 06:08:00;;;;;;;7.95;4.75;;;;;;;0.75;53.39;98198.00;5026959;28;20053;-73
2020/12/29 06:10:28;;;;;;;8.18;5.35;;;;;;;0.68;53.66;98188.00;5026457;28;20103;-70
2020/12/29 06:13:01;;;;;;;8.75;5.22;;;;;;;0.75;53.30;98195.44;5027328;28;20040;-72
2020/12/29 06:15:32;;;;;;;7.57;4.80;;;;;;;0.81;53.12;98192.59;5024453;28;20030;-71
2020/12/29 06:18:00;;;;;;;5.50;3.53;;;;;;;0.69;53.35;98188.81;5021850;28;20048;-72
2020/12/29 06:20:37;;;;;;;11.20;5.32;;;;;;;0.72;53.39;98186.13;5027266;28;20107;-71
2020/12/29 06:23:08;;;;;;;9.25;5.25;;;;;;;0.70;53.47;98190.47;5025624;28;20033;-71
2020/12/29 06:25:36;;;;;;;8.68;4.93;;;;;;;0.64;53.45;98191.59;5025774;28;20346;-69
2020/12/29 06:28:04;;;;;;;7.88;4.43;;;;;;;0.54;53.92;98198.00;5019831;28;20033;-73
2020/12/29 06:30:31;;;;;;;10.82;5.22;;;;;;;0.52;53.96;98197.22;5026963;28;20029;-72
2020/12/29 06:32:59;;;;;;;10.10;5.18;;;;;;;0.45;54.13;98194.06;5043897;28;20040;-71
2020/12/29 06:35:24;;;;;;;9.82;5.88;;;;;;;0.67;53.62;98188.06;5027031;28;20083;-74
2020/12/29 06:37:55;;;;;;;8.52;5.22;;;;;;;0.71;53.27;98199.06;5022865;28;20065;-73
2020/12/29 06:40:22;;;;;;;13.15;6.32;;;;;;;0.83;53.24;98201.09;5026350;28;20029;-73
2020/12/29 06:42:48;;;;;;;10.52;5.88;;;;;;;0.74;53.35;98201.47;5023785;28;20052;-73
2020/12/29 06:45:14;;;;;;;11.27;5.32;;;;;;;0.65;53.59;98213.81;5025704;28;20036;-71
2020/12/29 06:47:43;;;;;;;11.32;5.47;;;;;;;0.56;53.94;98218.50;5026523;28;20029;-72
2020/12/29 06:50:23;;;;;;;13.77;6.32;;;;;;;0.72;53.32;98221.28;5024693;28;20021;-72
2020/12/29 06:53:03;;;;;;;9.35;5.07;;;;;;;0.79;53.28;98220.13;5025822;28;20085;-73
2020/12/29 06:55:39;;;;;;;11.77;5.05;;;;;;;0.75;53.30;98214.28;5024757;28;20079;-73
2020/12/29 06:58:06;;;;;;;9.60;5.55;;;;;;;0.78;53.32;98223.59;5023688;28;20362;-74
2020/12/29 07:00:34;;;;;;;10.90;5.82;;;;;;;0.80;53.33;98221.81;5008431;28;20025;-73
2020/12/29 07:03:00;;;;;;;8.38;5.30;;;;;;;0.83;53.11;98221.66;5025435;28;20462;-74
2020/12/29 07:05:29;;;;;;;7.88;4.65;;;;;;;0.64;53.78;98224.19;5007969;28;20029;-74
2020/12/29 07:08:02;;;;;;;9.00;4.55;;;;;;;0.58;53.78;98224.44;5025176;28;20029;-73
2020/12/29 07:10:41;;;;;;;9.63;5.53;;;;;;;0.64;53.47;98227.59;5006850;28;20424;-75
2020/12/29 07:13:13;;;;;;;9.05;5.57;;;;;;;0.61;53.42;98230.28;5040504;28;20518;-74
2020/12/29 07:15:53;;;;;;;9.80;5.07;;;;;;;0.78;53.32;98228.75;5024869;28;20037;-74
2020/12/29 07:18:24;;;;;;;10.60;5.20;;;;;;;0.85;53.21;98237.88;5022777;28;20045;-73
2020/12/29 07:20:51;;;;;;;8.77;5.03;;;;;;;0.85;52.81;98238.69;5025213;28;20051;-74
2020/12/29 07:23:18;;;;;;;11.30;6.65;;;;;;;0.62;53.82;98238.84;5024222;28;20501;-72
2020/12/29 07:25:47;;;;;;;10.55;6.22;;;;;;;0.80;53.30;98247.50;5023582;28;20498;-72
2020/12/29 07:28:13;;;;;;;14.93;7.10;;;;;;;0.74;53.47;98253.72;5003440;28;20116;-73
2020/12/29 07:30:38;;;;;;;12.07;6.72;;;;;;;0.75;53.92;98254.56;5025573;28;20037;-73
2020/12/29 07:33:06;;;;;;;10.80;5.68;;;;;;;0.93;53.14;98251.25;5020980;28;20030;-72
2020/12/29 07:35:34;;;;;;;10.50;5.90;;;;;;;0.85;53.27;98261.84;5023056;28;20037;-75
2020/12/29 07:38:13;;;;;;;9.68;5.15;;;;;;;0.83;53.58;98263.63;5026234;28;20033;-75
2020/12/29 07:40:39;;;;;;;14.40;6.45;;;;;;;0.93;53.36;98264.09;5024140;28;20045;-74
2020/12/29 07:43:05;;;;;;;10.00;6.13;;;;;;;0.97;53.19;98260.50;5024978;28;20029;-74
2020/12/29 07:45:30;;;;;;;10.57;5.78;;;;;;;0.84;53.39;98270.47;5025125;28;20034;-73
2020/12/29 07:47:59;;;;;;;10.02;5.75;;;;;;;0.77;53.57;98278.47;5024974;28;20040;-73
2020/12/29 07:50:24;;;;;;;9.40;6.57;;;;;;;0.96;53.39;98276.81;5024991;28;20025;-72
2020/12/29 07:52:50;;;;;;;11.55;6.13;;;;;;;0.95;53.16;98274.31;5025647;28;20041;-74
2020/12/29 07:55:17;;;;;;;10.68;6.43;;;;;;;1.01;52.94;98280.03;5027345;28;20022;-75
2020/12/29 07:57:43;;;;;;;11.77;6.53;;;;;;;0.89;53.00;98280.56;5025806;28;20696;-74
2020/12/29 08:00:14;;;;;;;14.98;7.57;;;;;;;0.69;53.58;98287.34;5013207;28;20025;-75
2020/12/29 08:02:49;;;;;;;13.93;6.63;;;;;;;0.69;53.65;98281.38;5027741;28;20045;-74
2020/12/29 08:05:14;;;;;;;12.65;6.85;;;;;;;0.85;53.38;98276.44;5025856;28;20128;-73
2020/12/29 08:07:40;;;;;;;12.00;5.80;;;;;;;0.88;53.20;98286.59;5028230;28;20140;-74
2020/12/29 08:10:05;;;;;;;13.35;7.30;;;;;;;0.88;53.17;98292.59;5026677;28;20022;-74
2020/12/29 08:12:31;;;;;;;11.93;5.97;;;;;;;1.07;53.06;98287.50;5029271;28;20037;-75
2020/12/29 08:14:56;;;;;;;11.30;6.60;;;;;;;1.08;53.02;98288.31;5028464;28;20047;-74
2020/12/29 08:17:22;;;;;;;15.75;7.07;;;;;;;1.02;53.02;98293.75;5028641;28;20048;-74
2020/12/29 08:20:00;;;;;;;12.88;8.00;;;;;;;1.00;53.01;98286.09;5024214;28;20041;-74
2020/12/29 08:22:27;;;;;;;11.45;6.07;;;;;;;0.96;52.79;98289.69;5025223;28;20167;-73
2020/12/29 08:24:53;;;;;;;15.05;6.10;;;;;;;1.01;53.38;98297.22;5029793;28;20058;-73
2020/12/29 08:27:19;;;;;;;12.38;5.78;;;;;;;1.03;53.39;98301.38;5029669;28;20068;-73
2020/12/29 08:29:44;;;;;;;10.95;5.72;;;;;;;1.01;53.27;98304.91;5028214;28;20044;-73
2020/12/29 08:32:12;;;;;;;8.88;4.68;;;;;;;1.05;52.96;98299.59;5029652;28;20138;-73
2020/12/29 08:34:45;;;;;;;10.45;4.90;;;;;;;1.04;53.03;98308.22;5027560;28;20026;-73
2020/12/29 08:37:13;;;;;;;12.15;6.18;;;;;;;1.09;53.57;98306.28;5008468;28;20025;-73
2020/12/29 08:39:54;;;;;;;17.35;8.77;;;;;;;1.09;53.70;98305.44;5028869;28;20030;-73
2020/12/29 08:42:21;;;;;;;20.10;10.18;;;;;;;1.07;53.40;98317.53;5030063;28;20039;-72
2020/12/29 08:44:47;;;;;;;15.48;7.80;;;;;;;1.19;52.73;98305.88;5027829;28;20443;-74
2020/12/29 08:47:15;;;;;;;11.80;7.05;;;;;;;0.90;52.86;98305.34;5021395;28;20034;-74
2020/12/29 08:49:41;;;;;;;14.77;7.47;;;;;;;0.95;53.62;98303.47;5026238;28;20552;-74
2020/12/29 08:52:06;;;;;;;14.88;7.25;;;;;;;0.99;53.66;98312.72;5029208;28;20453;-74
2020/12/29 08:54:39;;;;;;;11.32;6.55;;;;;;;1.05;53.15;98327.88;5026294;28;20041;-74
2020/12/29 08:57:06;;;;;;;19.48;10.18;;;;;;;1.27;52.94;98327.00;5008025;28;20438;-74
2020/12/29 08:59:37;;;;;;;15.68;7.57;;;;;;;1.20;53.03;98325.59;5007476;28;20037;-74
2020/12/29 09:02:03;;;;;;;11.32;6.45;;;;;;;1.31;52.14;98333.69;5026319;28;20033;-74
2020/12/29 09:04:36;;;;;;;13.52;7.13;;;;;;;1.43;52.21;98335.75;5005680;28;20065;-74
2020/12/29 09:07:12;;;;;;;10.25;6.55;;;;;;;1.48;51.70;98343.28;5025641;28;20561;-74
2020/12/29 09:09:49;;;;;;;15.60;8.85;;;;;;;1.52;52.00;98340.50;5018318;28;20094;-73
2020/12/29 09:12:20;;;;;;;11.55;6.53;;;;;;;1.49;51.82;98350.94;5026561;28;20037;-73
2020/12/29 09:14:52;;;;;;;10.48;5.88;;;;;;;1.49;52.06;98353.53;5026106;28;20056;-73
2020/12/29 09:17:19;;;;;;;10.82;5.55;;;;;;;1.40;52.45;98356.50;5026290;28;20041;-74
2020/12/29 09:20:09;;;;;;;10.93;5.88;;;;;;;1.48;52.56;98363.88;5008620;28;20508;-73
2020/12/29 09:23:15;;;;;;;15.38;7.43;;;;;;;1.57;52.26;98376.34;5023711;28;20473;-74
2020/12/29 09:25:42;;;;;;;12.45;6.35;;;;;;;1.50;52.49;98377.50;4962055;28;20053;-74
2020/12/29 09:28:26;;;;;;;14.45;6.45;;;;;;;1.60;52.30;98389.09;5033808;28;20067;-74
2020/12/29 09:31:07;;;;;;;10.50;6.25;;;;;;;1.38;52.17;98391.72;5022646;28;20033;-74
2020/12/29 09:33:35;;;;;;;9.93;5.30;;;;;;;1.50;52.15;98388.63;5007602;28;20094;-73
2020/12/29 09:36:04;;;;;;;10.32;6.43;;;;;;;1.52;52.00;98391.16;5025825;28;20568;-74
2020/12/29 09:38:30;;;;;;;12.05;6.43;;;;;;;1.51;52.48;98390.34;5023159;28;20038;-73
2020/12/29 09:40:58;;;;;;;9.82;6.40;;;;;;;1.63;52.44;98395.84;5023501;28;20029;-74
2020/12/29 09:43:24;;;;;;;14.35;8.13;;;;;;;1.69;52.08;98404.16;5007235;28;20029;-74
2020/12/29 09:45:51;;;;;;;17.38;6.38;;;;;;;1.67;51.69;98403.38;5023561;28;20059;-74
2020/12/29 09:48:17;;;;;;;10.52;5.57;;;;;;;1.75;51.93;98410.78;5039820;28;20120;-73
2020/12/29 09:50:43;;;;;;;11.57;6.07;;;;;;;1.75;51.63;98413.34;5024312;28;20034;-74
2020/12/29 09:53:09;;;;;;;13.88;6.10;;;;;;;1.57;50.91;98419.28;5024724;28;20026;-74
2020/12/29 09:55:36;;;;;;;11.63;6.20;;;;;;;1.47;51.77;98419.66;5023501;28;20072;-73
2020/12/29 09:58:02;;;;;;;14.35;6.68;;;;;;;1.44;51.88;98424.97;5025377;28;20452;-73
2020/12/29 10:00:27;;;;;;;10.95;6.03;;;;;;;1.56;51.76;98422.78;5004870;28;20125;-75
2020/12/29 10:02:53;;;;;;;14.77;6.65;;;;;;;1.69;52.14;98423.94;5021385;28;20107;-75
2020/12/29 10:05:18;;;;;;;11.73;6.78;;;;;;;1.79;51.77;98432.91;5022758;28;20075;-74
2020/12/29 10:07:45;;;;;;;12.68;6.82;;;;;;;1.83;51.53;98442.19;5023555;28;20041;-73
2020/12/29 10:10:10;;;;;;;9.32;5.00;;;;;;;1.70;51.81;98441.03;5020545;28;20394;-74
2020/12/29 10:12:36;;;;;;;11.05;6.43;;;;;;;1.45;51.82;98433.50;5007169;28;20060;-74
2020/12/29 10:15:02;;;;;;;11.65;5.65;;;;;;;1.36;52.56;98437.28;5021579;28;20025;-75
2020/12/29 10:17:28;;;;;;;9.40;5.30;;;;;;;1.55;52.34;98437.38;5023064;28;20343;-75
2020/12/29 10:19:56;;;;;;;9.18;5.28;;;;;;;1.43;52.08;98449.00;5023272;28;20041;-74
2020/12/29 10:22:22;;;;;;;9.10;5.43;;;;;;;1.57;52.35;98448.44;5034959;28;20061;-74
2020/12/29 10:24:47;;;;;;;11.43;5.28;;;;;;;1.52;51.95;98448.63;5026427;28;20549;-74
2020/12/29 10:27:13;;;;;;;10.43;4.93;;;;;;;1.56;52.24;98445.94;5018266;28;20095;-74
2020/12/29 10:29:38;;;;;;;17.48;7.72;;;;;;;1.31;52.26;98447.75;5023728;28;20084;-74
2020/12/29 10:32:04;;;;;;;12.65;6.45;;;;;;;1.36;52.30;98439.84;5023456;28;20116;-74
2020/12/29 10:34:29;;;;;;;15.38;6.85;;;;;;;1.46;52.27;98448.91;5023072;28;20033;-75
2020/12/29 10:36:55;;;;;;;14.43;6.20;;;;;;;0.89;53.18;98448.56;5025968;28;20071;-74
2020/12/29 10:39:20;;;;;;;11.35;5.38;;;;;;;1.13;53.33;98448.50;5051147;28;20034;-73
2020/12/29 10:41:46;;;;;;;16.20;7.43;;;;;;;1.34;53.02;98446.78;5038892;28;20029;-75
2020/12/29 10:44:14;;;;;;;11.60;6.07;;;;;;;0.95;53.84;98446.63;5032798;28;20075;-74
2020/12/29 10:46:45;;;;;;;10.68;5.95;;;;;;;1.22;53.55;98447.28;5027366;28;20092;-74
2020/12/29 10:49:14;;;;;;;11.60;5.88;;;;;;;1.48;52.91;98448.81;5028652;28;20041;-75
2020/12/29 10:51:40;;;;;;;9.77;5.32;;;;;;;1.48;53.03;98444.53;5027456;28;20072;-74
2020/12/29 10:54:05;;;;;;;16.48;7.45;;;;;;;1.60;52.78;98455.22;5025706;28;20057;-74
2020/12/29 10:56:31;;;;;;;14.23;6.47;;;;;;;1.66;52.76;98453.22;5006592;28;20045;-73
2020/12/29 10:58:56;;;;;;;11.20;4.97;;;;;;;1.62;52.29;98453.41;5024077;28;20037;-75
2020/12/29 11:01:24;;;;;;;13.18;6.03;;;;;;;1.58;52.16;98457.03;5025837;28;20121;-73
2020/12/29 11:03:51;;;;;;;11.38;5.95;;;;;;;1.18;53.26;98458.59;5025176;28;20103;-74
2020/12/29 11:06:19;;;;;;;11.23;5.93;;;;;;;1.69;52.46;98457.41;5031693;28;20029;-73
2020/12/29 11:08:45;;;;;;;11.32;5.70;;;;;;;1.09;53.48;98463.22;5005219;28;20128;-74
2020/12/29 11:11:11;;;;;;;9.00;5.85;;;;;;;1.44;52.98;98471.28;5029760;28;20497;-73
2020/12/29 11:13:37;;;;;;;10.02;5.82;;;;;;;1.05;53.77;98469.38;5022280;28;20241;-75
2020/12/29 11:16:03;;;;;;;10.73;5.03;;;;;;;1.46;53.24;98479.78;5025067;28;20044;-73
2020/12/29 11:18:28;;;;;;;14.20;6.43;;;;;;;1.68;52.23;98479.72;5028473;28;20045;-75
2020/12/29 11:20:54;;;;;;;11.52;5.97;;;;;;;1.43;52.86;98485.06;5023334;28;20017;-74
2020/12/29 11:23:20;;;;;;;10.48;5.07;;;;;;;1.79;52.76;98492.16;5026211;28;20030;-74
2020/12/29 11:25:46;;;;;;;9.82;5.82;;;;;;;1.95;52.27;98492.34;5008282;28;20115;-74
2020/12/29 11:28:11;;;;;;;11.98;5.05;;;;;;;1.73;52.33;98493.28;5027119;28;20072;-73
2020/12/29 11:30:37;;;;;;;9.23;4.93;;;;;;;1.35;53.43;98499.94;5032122;28;20078;-74
2020/12/29 11:33:03;;;;;;;10.38;4.72;;;;;;;1.10;54.01;98502.63;5033180;28;20040;-73
2020/12/29 11:35:28;;;;;;;9.80;5.18;;;;;;;1.36;53.77;98493.88;5016101;28;20056;-73
2020/12/29 11:37:54;;;;;;;11.30;5.88;;;;;;;1.52;53.39;98491.56;5039059;28;20033;-75
2020/12/29 11:40:19;;;;;;;10.73;5.22;;;;;;;1.45;52.90;98488.41;5037721;28;20040;-74